Time;durP1;ratioP1;P1;durP2;ratioP2;P2;SDS_P1;SDS_P2;PMS_P1;PMS_P2;Temp;Humidity;BMP_temperature;BMP_pressure;BME280_temperature;BME280_humidity;BME280_pressure;Samples;Min_cycle;Max_cycle;Signal;HPM_P1;HPM_P2
2021/10/12 00:00:32;;;;;;;13.55;9.98;;;;;;;4.28;100.00;93718.84;2116068;28;20030;-78
2021/10/12 00:01:33;;;;;;;13.20;8.95;;;;;;;4.20;100.00;93719.13;2116113;28;20023;-79
2021/10/12 00:02:34;;;;;;;13.85;8.60;;;;;;;4.23;100.00;93715.78;2115954;28;20047;-78
2021/10/12 00:03:35;;;;;;;12.98;8.98;;;;;;;4.24;100.00;93712.00;2123988;27;20023;-78
2021/10/12 00:04:35;;;;;;;11.60;8.60;;;;;;;4.25;100.00;93716.16;2123839;27;20027;-78
2021/10/12 00:05:36;;;;;;;12.43;8.80;;;;;;;4.16;100.00;93715.69;2122178;27;20127;-78
2021/10/12 00:06:40;;;;;;;12.25;9.02;;;;;;;4.16;100.00;93713.78;2123911;27;20019;-79
2021/10/12 00:07:41;;;;;;;12.65;8.77;;;;;;;4.10;100.00;93709.94;2122364;27;20466;-80
2021/10/12 00:08:42;;;;;;;11.82;8.75;;;;;;;4.14;100.00;93715.28;2115242;28;20027;-79
2021/10/12 00:09:43;;;;;;;12.80;9.32;;;;;;;4.08;100.00;93708.78;2123994;27;20060;-79
2021/10/12 00:10:44;;;;;;;12.27;8.60;;;;;;;4.01;100.00;93712.09;2132963;27;20046;-80
2021/10/12 00:11:45;;;;;;;13.18;8.48;;;;;;;3.97;100.00;93720.00;2107136;28;20047;-76
2021/10/12 00:12:46;;;;;;;11.48;8.68;;;;;;;3.99;100.00;93701.09;2115025;28;20110;-80
2021/10/12 00:13:47;;;;;;;12.40;8.27;;;;;;;3.95;100.00;93700.28;2115364;28;20031;-79
2021/10/12 00:14:48;;;;;;;13.95;8.40;;;;;;;3.91;100.00;93710.84;2115306;27;20011;-78
2021/10/12 00:15:49;;;;;;;14.70;9.10;;;;;;;3.92;100.00;93701.03;2116001;27;20019;-77
2021/10/12 00:16:50;;;;;;;10.90;8.55;;;;;;;3.90;100.00;93701.38;2123788;27;20019;-80
2021/10/12 00:17:51;;;;;;;12.70;8.48;;;;;;;3.85;100.00;93698.28;2132900;27;20030;-79
2021/10/12 00:18:52;;;;;;;12.40;8.55;;;;;;;3.74;100.00;93700.81;2132913;27;20026;-81
2021/10/12 00:19:53;;;;;;;12.07;7.85;;;;;;;3.68;100.00;93705.63;2132976;27;20106;-78
2021/10/12 00:20:54;;;;;;;14.13;9.40;;;;;;;3.65;100.00;93708.25;2132916;27;20025;-80
2021/10/12 00:21:55;;;;;;;14.07;8.98;;;;;;;3.67;100.00;93706.75;2123679;27;20030;-82
2021/10/12 00:22:56;;;;;;;12.57;9.15;;;;;;;3.69;100.00;93706.41;2115256;28;20484;-77
2021/10/12 00:23:57;;;;;;;15.13;8.82;;;;;;;3.63;100.00;93699.88;2106943;28;20051;-78
2021/10/12 00:24:58;;;;;;;12.05;8.13;;;;;;;3.66;100.00;93701.81;2115413;27;20031;-81
2021/10/12 00:26:00;;;;;;;10.30;8.43;;;;;;;3.61;100.00;93704.78;2130714;27;20535;-80
2021/10/12 00:27:01;;;;;;;12.88;8.75;;;;;;;3.56;100.00;93699.78;2115065;28;20053;-78
2021/10/12 00:28:02;;;;;;;15.85;8.80;;;;;;;3.52;100.00;93700.50;2117616;27;20038;-79
2021/10/12 00:29:03;;;;;;;11.27;8.55;;;;;;;3.50;100.00;93700.09;2123817;27;20027;-78
2021/10/12 00:30:05;;;;;;;11.40;8.52;;;;;;;3.53;100.00;93709.19;2123879;27;20034;-79
2021/10/12 00:31:06;;;;;;;11.85;7.85;;;;;;;3.52;100.00;93697.88;2120600;27;20020;-80
2021/10/12 00:32:08;;;;;;;13.40;10.07;;;;;;;3.43;100.00;93699.25;2115038;28;20472;-78
2021/10/12 00:33:09;;;;;;;13.90;9.85;;;;;;;3.44;100.00;93700.75;2110375;28;20035;-79
2021/10/12 00:34:10;;;;;;;16.40;9.95;;;;;;;3.43;100.00;93697.34;2115154;28;20111;-80
2021/10/12 00:35:11;;;;;;;14.63;10.27;;;;;;;3.33;100.00;93694.53;2119624;27;20393;-80
2021/10/12 00:36:12;;;;;;;14.55;10.10;;;;;;;3.43;100.00;93696.59;2110550;28;20047;-80
2021/10/12 00:37:13;;;;;;;17.67;11.02;;;;;;;3.48;100.00;93691.00;2123679;27;20030;-79
2021/10/12 00:38:14;;;;;;;15.98;10.23;;;;;;;3.47;100.00;93700.81;2115130;28;20058;-79
2021/10/12 00:39:15;;;;;;;15.45;10.85;;;;;;;3.51;100.00;93698.19;2106790;28;20032;-78
2021/10/12 00:40:16;;;;;;;14.32;11.20;;;;;;;3.47;100.00;93698.19;2115275;28;20524;-78
2021/10/12 00:41:20;;;;;;;15.07;11.68;;;;;;;3.40;100.00;93698.06;2128887;27;20182;-79
2021/10/12 00:42:21;;;;;;;16.65;10.48;;;;;;;3.38;100.00;93695.03;2132743;27;20467;-78
2021/10/12 00:43:26;;;;;;;16.60;10.98;;;;;;;3.44;100.00;93688.31;2132780;27;20101;-78
2021/10/12 00:44:26;;;;;;;15.68;11.23;;;;;;;3.43;100.00;93689.44;2132823;27;20018;-79
2021/10/12 00:45:28;;;;;;;16.42;11.38;;;;;;;3.37;100.00;93688.19;2132758;27;20509;-77
2021/10/12 00:46:29;;;;;;;15.10;11.05;;;;;;;3.30;100.00;93690.00;2126361;27;20023;-80
2021/10/12 00:47:30;;;;;;;15.93;12.50;;;;;;;3.37;100.00;93695.34;2114357;28;20372;-78
2021/10/12 00:48:31;;;;;;;17.83;12.18;;;;;;;3.29;100.00;93686.56;2106264;28;20114;-80
2021/10/12 00:49:32;;;;;;;17.48;10.90;;;;;;;3.30;100.00;93706.59;2106610;28;20031;-79
2021/10/12 00:50:36;;;;;;;18.42;11.85;;;;;;;3.33;100.00;93705.09;2098249;28;20025;-78
2021/10/12 00:51:37;;;;;;;15.27;11.45;;;;;;;3.28;100.00;93704.28;2107002;28;20024;-79
2021/10/12 00:52:38;;;;;;;18.00;12.70;;;;;;;3.30;100.00;93696.03;2114954;28;20020;-78
2021/10/12 00:53:39;;;;;;;16.23;12.38;;;;;;;3.26;100.00;93695.97;2124089;27;20019;-79
2021/10/12 00:54:41;;;;;;;16.13;11.57;;;;;;;3.27;100.00;93696.72;2114878;28;20106;-79
2021/10/12 00:55:42;;;;;;;18.95;12.23;;;;;;;3.31;100.00;93689.63;2115016;28;20034;-78
2021/10/12 00:56:43;;;;;;;17.42;11.82;;;;;;;3.21;100.00;93688.34;2114943;28;20092;-80
2021/10/12 00:57:44;;;;;;;18.02;11.95;;;;;;;3.30;100.00;93690.00;2114862;28;20068;-78
2021/10/12 00:58:48;;;;;;;18.55;12.52;;;;;;;3.32;100.00;93687.75;2115062;28;20020;-78
2021/10/12 00:59:49;;;;;;;17.15;12.90;;;;;;;3.30;100.00;93685.47;2114991;28;20031;-79
2021/10/12 01:00:50;;;;;;;19.02;12.82;;;;;;;3.21;100.00;93682.31;2115009;27;20039;-78
2021/10/12 01:01:51;;;;;;;18.05;12.13;;;;;;;3.24;100.00;93678.94;2114860;28;20541;-78
2021/10/12 01:02:52;;;;;;;21.80;12.73;;;;;;;3.24;100.00;93682.34;2114968;28;20115;-79
2021/10/12 01:03:56;;;;;;;18.98;12.70;;;;;;;3.21;100.00;93680.44;2115052;28;20095;-80
2021/10/12 01:04:57;;;;;;;18.42;12.50;;;;;;;3.19;100.00;93679.25;2114759;28;20026;-80
2021/10/12 01:05:58;;;;;;;21.83;13.10;;;;;;;3.23;100.00;93683.47;2123567;27;20019;-78
2021/10/12 01:07:01;;;;;;;21.17;13.90;;;;;;;3.23;100.00;93688.00;2132343;27;20029;-79
2021/10/12 01:08:03;;;;;;;18.10;12.25;;;;;;;3.32;100.00;93685.09;2132599;27;20555;-78
2021/10/12 01:09:05;;;;;;;17.33;12.35;;;;;;;3.31;100.00;93680.94;2132628;27;20090;-79
2021/10/12 01:10:08;;;;;;;18.95;12.68;;;;;;;3.26;100.00;93685.41;2122665;27;20077;-80
2021/10/12 01:11:09;;;;;;;20.15;13.30;;;;;;;3.27;100.00;93683.53;2113716;28;20024;-77
2021/10/12 01:12:10;;;;;;;19.17;12.15;;;;;;;3.28;100.00;93682.41;2115053;28;20015;-80
2021/10/12 01:13:11;;;;;;;22.77;13.18;;;;;;;3.32;100.00;93679.81;2115129;27;20443;-80
2021/10/12 01:14:12;;;;;;;17.85;12.77;;;;;;;3.29;100.00;93673.34;2125460;27;20023;-78
2021/10/12 01:15:13;;;;;;;19.25;13.13;;;;;;;3.28;100.00;93682.41;2132515;27;20023;-81
2021/10/12 01:16:15;;;;;;;16.98;12.57;;;;;;;3.29;100.00;93673.34;2123372;27;20065;-77
2021/10/12 01:17:16;;;;;;;18.50;13.68;;;;;;;3.25;100.00;93677.84;2123710;27;20034;-79
2021/10/12 01:18:18;;;;;;;21.00;13.90;;;;;;;3.26;100.00;93679.38;2123177;27;20464;-79
2021/10/12 01:19:19;;;;;;;18.27;12.73;;;;;;;3.31;100.00;93675.66;2099542;28;20488;-77
2021/10/12 01:20:21;;;;;;;18.10;13.05;;;;;;;3.32;100.00;93672.66;2097877;28;20028;-79
2021/10/12 01:21:22;;;;;;;19.85;12.65;;;;;;;3.26;100.00;93674.84;2114981;28;20487;-78
2021/10/12 01:22:23;;;;;;;17.58;12.32;;;;;;;3.36;100.00;93670.06;2106263;28;20032;-79
2021/10/12 01:23:24;;;;;;;15.30;11.93;;;;;;;3.30;100.00;93679.41;2097963;28;20025;-78
2021/10/12 01:24:25;;;;;;;18.30;12.70;;;;;;;3.32;100.00;93685.09;2114751;28;20026;-80
2021/10/12 01:25:27;;;;;;;20.33;12.90;;;;;;;3.38;100.00;93689.75;2123963;27;20019;-79
2021/10/12 01:26:29;;;;;;;16.83;12.68;;;;;;;3.37;100.00;93680.25;2115169;28;20027;-79
2021/10/12 01:27:30;;;;;;;17.35;12.30;;;;;;;3.37;100.00;93680.25;2106497;28;20024;-80
2021/10/12 01:28:31;;;;;;;18.90;12.77;;;;;;;3.40;100.00;93684.84;2106076;28;20366;-79
2021/10/12 01:29:32;;;;;;;22.00;13.60;;;;;;;3.36;100.00;93678.75;2114836;28;20539;-80
2021/10/12 01:30:34;;;;;;;18.65;13.02;;;;;;;3.41;100.00;93667.88;2114691;28;20020;-80
2021/10/12 01:31:35;;;;;;;22.58;13.35;;;;;;;3.40;100.00;93662.94;2106398;28;20073;-76
2021/10/12 01:32:41;;;;;;;19.65;13.65;;;;;;;3.36;100.00;93673.47;2107857;27;20543;-79
2021/10/12 01:33:42;;;;;;;18.42;12.27;;;;;;;3.42;100.00;93674.66;2123275;27;20051;-78
2021/10/12 01:34:43;;;;;;;18.65;12.20;;;;;;;3.43;100.00;93665.66;2114741;28;20115;-81
2021/10/12 01:35:44;;;;;;;21.08;12.57;;;;;;;3.48;100.00;93670.63;2118467;27;20102;-79
2021/10/12 01:36:46;;;;;;;19.80;13.70;;;;;;;3.52;100.00;93666.16;2132369;27;20018;-79
2021/10/12 01:37:47;;;;;;;17.70;12.75;;;;;;;3.60;100.00;93666.22;2123021;27;20015;-80
2021/10/12 01:38:48;;;;;;;21.08;13.43;;;;;;;3.65;100.00;93665.94;2123188;27;20019;-77
2021/10/12 01:39:49;;;;;;;19.20;13.35;;;;;;;3.68;100.00;93660.69;2132225;27;20011;-79
2021/10/12 01:40:50;;;;;;;21.35;14.55;;;;;;;3.69;100.00;93658.81;2123228;27;20023;-76
2021/10/12 01:41:51;;;;;;;21.33;13.40;;;;;;;3.71;100.00;93657.31;2123175;27;20088;-79
2021/10/12 01:42:57;;;;;;;24.58;14.68;;;;;;;3.89;100.00;93662.06;2132286;27;20031;-78
2021/10/12 01:43:58;;;;;;;18.73;13.45;;;;;;;3.96;100.00;93668.22;2123121;27;20019;-78
2021/10/12 01:45:00;;;;;;;21.35;14.52;;;;;;;3.97;100.00;93666.34;2123166;27;20480;-78
2021/10/12 01:46:02;;;;;;;20.27;13.85;;;;;;;3.90;100.00;93659.06;2123219;27;20025;-79
2021/10/12 01:47:03;;;;;;;23.30;13.95;;;;;;;3.97;100.00;93661.03;2123326;27;20196;-79
2021/10/12 01:48:04;;;;;;;20.65;14.57;;;;;;;4.03;100.00;93667.53;2131665;27;20135;-78
2021/10/12 01:49:06;;;;;;;21.00;14.43;;;;;;;4.02;100.00;93655.44;2123006;27;20046;-80
2021/10/12 01:50:09;;;;;;;19.80;14.02;;;;;;;4.09;100.00;93654.78;2123117;27;20153;-78
2021/10/12 01:51:10;;;;;;;20.50;13.50;;;;;;;4.05;100.00;93654.72;2114935;27;20024;-78
2021/10/12 01:52:11;;;;;;;19.27;14.20;;;;;;;4.13;100.00;93650.28;2114668;28;20016;-79
2021/10/12 01:53:12;;;;;;;22.13;14.75;;;;;;;4.15;100.00;93653.31;2114710;28;20376;-78
2021/10/12 01:54:18;;;;;;;19.42;13.88;;;;;;;4.19;100.00;93656.75;2114558;28;20031;-77
2021/10/12 01:55:23;;;;;;;18.23;13.43;;;;;;;4.11;100.00;93652.50;2115298;27;20063;-78
2021/10/12 01:56:24;;;;;;;19.90;14.05;;;;;;;4.09;100.00;93654.78;2106021;28;20030;-78
2021/10/12 01:57:25;;;;;;;19.45;13.75;;;;;;;4.16;100.00;93658.22;2106365;28;20027;-80
2021/10/12 01:58:26;;;;;;;25.55;13.40;;;;;;;4.15;100.00;93653.31;2123581;27;20016;-79
2021/10/12 01:59:27;;;;;;;21.27;13.23;;;;;;;4.14;100.00;93657.09;2123367;27;20107;-78
2021/10/12 02:00:28;;;;;;;20.52;14.45;;;;;;;4.17;100.00;93656.34;2114499;28;20098;-79
2021/10/12 02:01:29;;;;;;;19.55;13.95;;;;;;;4.19;100.00;93659.41;2106015;28;20492;-78
2021/10/12 02:02:29;;;;;;;21.10;14.52;;;;;;;4.16;100.00;93665.41;2106069;28;20106;-78
2021/10/12 02:03:30;;;;;;;18.70;14.25;;;;;;;4.19;100.00;93670.75;2114479;28;20073;-78
2021/10/12 02:04:33;;;;;;;19.08;13.68;;;;;;;4.15;100.00;93661.25;2114679;28;20031;-80
2021/10/12 02:05:34;;;;;;;22.70;14.60;;;;;;;4.13;100.00;93661.63;2097864;28;20142;-79
2021/10/12 02:07:53;;;;;;;;;;;;;;;4.13;100.00;93660.88;2148785;27;20546;-80
2021/10/12 02:08:54;;;;;;;20.00;13.32;;;;;;;4.09;100.00;93665.34;2139167;27;19917;-80
2021/10/12 02:09:55;;;;;;;19.88;13.45;;;;;;;4.06;100.00;93650.94;2139222;27;20018;-80
2021/10/12 02:10:56;;;;;;;25.75;15.50;;;;;;;4.04;100.00;93650.56;2148392;27;20504;-81
2021/10/12 02:11:58;;;;;;;20.63;14.98;;;;;;;4.07;100.00;93649.06;2139081;27;20029;-81
2021/10/12 02:12:58;;;;;;;24.45;15.80;;;;;;;4.03;100.00;93646.38;2121823;27;20035;-81
2021/10/12 02:14:01;;;;;;;21.73;15.07;;;;;;;4.00;100.00;93642.59;2130608;27;20041;-81
2021/10/12 02:15:03;;;;;;;23.60;15.73;;;;;;;4.00;100.00;93636.53;2139109;27;20609;-79
2021/10/12 02:16:04;;;;;;;24.88;14.32;;;;;;;3.97;100.00;93638.00;2139322;27;20026;-79
2021/10/12 02:17:05;;;;;;;21.17;15.23;;;;;;;3.95;100.00;93634.97;2148178;27;20025;-80
2021/10/12 02:18:06;;;;;;;19.65;14.32;;;;;;;3.91;100.00;93634.16;2138966;27;20482;-81
2021/10/12 02:19:07;;;;;;;21.63;14.90;;;;;;;3.98;100.00;93626.28;2130589;27;20042;-80
2021/10/12 02:20:09;;;;;;;21.80;14.77;;;;;;;3.95;100.00;93628.88;2130572;27;20027;-79
2021/10/12 02:21:10;;;;;;;22.80;15.13;;;;;;;3.95;100.00;93628.88;2130533;27;20041;-81
2021/10/12 02:22:11;;;;;;;21.80;14.93;;;;;;;3.90;100.00;93632.63;2130390;27;20023;-78
2021/10/12 02:23:12;;;;;;;20.38;13.98;;;;;;;3.84;100.00;93628.03;2138946;27;20156;-80
2021/10/12 02:24:15;;;;;;;24.88;14.65;;;;;;;3.80;100.00;93630.63;2148219;27;20068;-80
2021/10/12 02:25:16;;;;;;;20.33;14.25;;;;;;;3.84;100.00;93622.72;2148402;27;20021;-80
2021/10/12 02:26:17;;;;;;;19.90;13.75;;;;;;;3.89;100.00;93615.25;2132068;27;20162;-78
2021/10/12 02:27:18;;;;;;;19.73;13.98;;;;;;;3.78;100.00;93614.38;2113327;28;20027;-79
2021/10/12 02:28:19;;;;;;;21.90;14.30;;;;;;;3.76;100.00;93614.72;2121945;27;20471;-79
2021/10/12 02:29:20;;;;;;;19.23;13.73;;;;;;;3.88;100.00;93616.38;2121759;28;20031;-82
2021/10/12 02:30:21;;;;;;;18.85;14.00;;;;;;;3.84;100.00;93612.91;2121802;28;20102;-81
2021/10/12 02:31:22;;;;;;;20.50;13.63;;;;;;;3.83;100.00;93614.03;2121842;27;20030;-81
2021/10/12 02:32:23;;;;;;;27.33;15.05;;;;;;;3.72;100.00;93610.50;2130912;27;20497;-80
2021/10/12 02:33:24;;;;;;;20.13;13.73;;;;;;;3.74;100.00;93606.38;2135924;27;20014;-79
2021/10/12 02:34:25;;;;;;;18.67;14.18;;;;;;;3.81;100.00;93603.06;2121803;28;20430;-80
2021/10/12 02:35:26;;;;;;;20.42;14.95;;;;;;;3.76;100.00;93619.22;2121707;27;20039;-80
2021/10/12 02:36:27;;;;;;;20.48;14.00;;;;;;;3.75;100.00;93615.06;2130296;27;20515;-79
2021/10/12 02:37:28;;;;;;;23.00;14.95;;;;;;;3.64;100.00;93614.94;2130269;27;20025;-79
2021/10/12 02:38:29;;;;;;;23.50;14.85;;;;;;;3.70;100.00;93604.81;2130304;27;20475;-82
2021/10/12 02:39:30;;;;;;;20.88;13.98;;;;;;;3.77;100.00;93605.66;2130201;27;20048;-79
2021/10/12 02:40:31;;;;;;;20.55;14.82;;;;;;;3.77;100.00;93605.66;2139484;27;20035;-80
2021/10/12 02:41:32;;;;;;;23.30;14.40;;;;;;;3.71;100.00;93614.28;2130158;27;20026;-79
2021/10/12 02:42:33;;;;;;;21.15;14.13;;;;;;;3.78;100.00;93611.72;2121555;27;20025;-80
2021/10/12 02:43:34;;;;;;;18.27;13.02;;;;;;;3.70;100.00;93605.59;2121757;28;20389;-80
2021/10/12 02:44:35;;;;;;;19.88;14.57;;;;;;;3.67;100.00;93602.88;2121668;27;20099;-81
2021/10/12 02:45:36;;;;;;;19.98;14.25;;;;;;;3.69;100.00;93601.41;2113204;28;20051;-81
2021/10/12 02:46:37;;;;;;;19.30;13.77;;;;;;;3.72;100.00;93600.69;2121502;28;20023;-81
2021/10/12 02:47:38;;;;;;;17.92;14.00;;;;;;;3.73;100.00;93601.44;2121408;28;20152;-80
2021/10/12 02:48:39;;;;;;;22.65;14.70;;;;;;;3.68;100.00;93599.13;2130822;27;20046;-82
2021/10/12 02:49:40;;;;;;;23.23;13.98;;;;;;;3.65;100.00;93599.84;2113007;28;20020;-79
2021/10/12 02:50:43;;;;;;;20.08;13.82;;;;;;;3.63;100.00;93592.28;2104725;28;20028;-80
2021/10/12 02:51:44;;;;;;;19.48;14.15;;;;;;;3.67;100.00;93590.44;2121932;27;20559;-79
2021/10/12 02:52:45;;;;;;;20.92;14.98;;;;;;;3.70;100.00;93592.38;2132508;27;20034;-79
2021/10/12 02:53:46;;;;;;;20.95;14.32;;;;;;;3.71;100.00;93596.53;2130021;27;20030;-81
2021/10/12 02:54:47;;;;;;;21.63;15.05;;;;;;;3.73;100.00;93593.50;2130091;27;20098;-78
2021/10/12 02:55:48;;;;;;;22.38;14.45;;;;;;;3.64;100.00;93588.50;2128599;27;20049;-78
2021/10/12 02:56:49;;;;;;;21.05;14.35;;;;;;;3.62;100.00;93590.00;2113004;28;20026;-80
2021/10/12 02:57:50;;;;;;;23.67;14.27;;;;;;;3.55;100.00;93593.28;2113366;27;20061;-79
2021/10/12 02:58:51;;;;;;;21.02;14.60;;;;;;;3.66;100.00;93580.97;2130303;27;20026;-81
2021/10/12 02:59:51;;;;;;;22.80;15.23;;;;;;;3.66;100.00;93583.63;2139401;27;20026;-79
2021/10/12 03:00:53;;;;;;;18.45;13.88;;;;;;;3.67;100.00;93584.38;2130032;27;20034;-79
2021/10/12 03:01:54;;;;;;;19.17;15.02;;;;;;;3.66;100.00;93583.63;2130126;27;20382;-81
2021/10/12 03:02:55;;;;;;;20.38;14.93;;;;;;;3.65;100.00;93586.63;2139221;27;20027;-79
2021/10/12 03:03:56;;;;;;;23.15;14.70;;;;;;;3.71;100.00;93585.19;2139249;27;20019;-80
2021/10/12 03:04:57;;;;;;;22.33;15.75;;;;;;;3.72;100.00;93576.88;2129988;27;20011;-81
2021/10/12 03:05:58;;;;;;;23.98;15.88;;;;;;;3.73;100.00;93581.06;2130055;27;20076;-79
2021/10/12 03:06:59;;;;;;;25.23;15.52;;;;;;;3.71;100.00;93579.91;2129770;27;20098;-81
2021/10/12 03:08:00;;;;;;;23.33;15.55;;;;;;;3.69;100.00;93582.16;2129853;27;20792;-80
2021/10/12 03:09:01;;;;;;;25.65;16.45;;;;;;;3.60;100.00;93571.06;2130633;27;20051;-80
2021/10/12 03:10:03;;;;;;;23.35;15.38;;;;;;;3.69;100.00;93576.88;2129946;27;20357;-78
2021/10/12 03:11:04;;;;;;;22.60;15.38;;;;;;;3.73;100.00;93577.66;2127820;27;20027;-82
2021/10/12 03:12:09;;;;;;;22.20;15.48;;;;;;;3.74;100.00;93579.19;2121373;28;20069;-81
2021/10/12 03:13:10;;;;;;;23.63;14.77;;;;;;;3.76;100.00;93572.41;2118802;27;20015;-79
2021/10/12 03:14:11;;;;;;;22.55;15.13;;;;;;;3.67;100.00;93574.56;2129998;27;20534;-78
2021/10/12 03:15:12;;;;;;;21.33;14.55;;;;;;;3.76;100.00;93569.00;2129848;27;20023;-79
2021/10/12 03:16:13;;;;;;;21.30;14.70;;;;;;;3.70;100.00;93571.22;2129953;27;20376;-77
2021/10/12 03:17:14;;;;;;;21.90;15.15;;;;;;;3.73;100.00;93573.16;2130456;27;20097;-80
2021/10/12 03:18:15;;;;;;;18.35;13.88;;;;;;;3.76;100.00;93574.28;2130542;27;20023;-80
2021/10/12 03:19:17;;;;;;;25.13;15.88;;;;;;;3.75;100.00;93568.25;2115605;28;20031;-80
2021/10/12 03:20:20;;;;;;;20.92;14.73;;;;;;;3.83;100.00;93569.09;2100861;28;20056;-79
2021/10/12 03:21:22;;;;;;;19.80;14.88;;;;;;;3.79;100.00;93576.22;2107641;28;20574;-81
2021/10/12 03:22:23;;;;;;;22.60;15.30;;;;;;;3.71;100.00;93567.44;2107414;28;20027;-79
2021/10/12 03:23:24;;;;;;;20.52;14.73;;;;;;;3.67;100.00;93560.59;2115773;28;20041;-79
2021/10/12 03:24:25;;;;;;;22.95;15.85;;;;;;;3.78;100.00;93564.88;2115683;28;20020;-81
2021/10/12 03:25:27;;;;;;;20.65;14.23;;;;;;;3.88;100.00;93568.00;2120936;27;20030;-79
2021/10/12 03:26:30;;;;;;;23.10;14.98;;;;;;;3.79;100.00;93557.72;2124071;27;20027;-80
2021/10/12 03:27:31;;;;;;;21.20;15.43;;;;;;;3.76;100.00;93566.34;2115629;27;20203;-80
2021/10/12 03:28:32;;;;;;;22.70;15.07;;;;;;;3.66;100.00;93557.19;2107287;28;20039;-78
2021/10/12 03:29:33;;;;;;;21.40;14.07;;;;;;;3.67;100.00;93560.59;2119964;27;20015;-79
2021/10/12 03:30:34;;;;;;;20.75;14.77;;;;;;;3.70;100.00;93554.59;2110939;28;20931;-80
2021/10/12 03:31:35;;;;;;;19.95;13.93;;;;;;;3.69;100.00;93556.47;2107154;28;20027;-81
2021/10/12 03:32:36;;;;;;;18.88;13.75;;;;;;;3.73;100.00;93549.34;2115536;28;20028;-79
2021/10/12 03:33:36;;;;;;;22.20;14.38;;;;;;;3.73;100.00;93561.78;2107262;28;20107;-80
2021/10/12 03:34:38;;;;;;;23.42;15.55;;;;;;;3.74;100.00;93560.69;2115649;28;20460;-80
2021/10/12 03:35:45;;;;;;;20.98;14.07;;;;;;;3.71;100.00;93564.81;2116375;28;20448;-82
2021/10/12 03:36:46;;;;;;;21.95;14.48;;;;;;;3.70;100.00;93562.53;2116267;28;20027;-79
2021/10/12 03:37:47;;;;;;;22.70;14.80;;;;;;;3.53;100.00;93555.91;2115403;28;20475;-81
2021/10/12 03:38:48;;;;;;;20.40;13.98;;;;;;;3.56;100.00;93559.69;2098656;28;20020;-79
2021/10/12 03:39:49;;;;;;;22.33;15.40;;;;;;;3.60;100.00;93550.72;2107279;28;20077;-78
2021/10/12 03:40:50;;;;;;;18.50;13.15;;;;;;;3.56;100.00;93549.13;2109501;28;20465;-79
2021/10/12 03:41:52;;;;;;;19.00;14.13;;;;;;;3.53;100.00;93540.81;2115743;28;20027;-80
2021/10/12 03:42:53;;;;;;;20.25;13.38;;;;;;;3.54;100.00;93531.75;2123936;27;20027;-81
2021/10/12 03:43:54;;;;;;;17.70;13.80;;;;;;;3.51;100.00;93532.50;2124068;27;20072;-78
2021/10/12 03:44:55;;;;;;;20.60;13.77;;;;;;;3.57;100.00;93532.16;2124058;27;20072;-79
2021/10/12 03:45:56;;;;;;;20.70;13.77;;;;;;;3.61;100.00;93528.44;2115477;27;20031;-79
2021/10/12 03:46:57;;;;;;;18.27;13.80;;;;;;;3.57;100.00;93522.34;2123973;27;20015;-79
2021/10/12 03:47:58;;;;;;;18.88;13.20;;;;;;;3.58;100.00;93523.88;2124042;27;20023;-80
2021/10/12 03:48:59;;;;;;;24.75;13.98;;;;;;;3.57;100.00;93517.06;2124071;27;20472;-80
2021/10/12 03:50:00;;;;;;;16.65;12.65;;;;;;;3.60;100.00;93511.06;2123934;27;20019;-79
2021/10/12 03:51:01;;;;;;;21.50;13.65;;;;;;;3.63;100.00;93509.56;2107027;28;20028;-80
2021/10/12 03:52:02;;;;;;;17.90;13.05;;;;;;;3.58;100.00;93504.63;2115616;28;20094;-80
2021/10/12 03:53:03;;;;;;;18.15;13.98;;;;;;;3.58;100.00;93505.38;2124607;27;20019;-78
2021/10/12 03:54:04;;;;;;;21.45;13.63;;;;;;;3.59;100.00;93504.25;2124486;27;20140;-82
2021/10/12 03:55:06;;;;;;;19.98;13.77;;;;;;;3.59;100.00;93509.53;2123789;27;20015;-80
2021/10/12 03:56:06;;;;;;;22.45;13.95;;;;;;;3.68;100.00;93501.31;2110696;28;20020;-80
2021/10/12 03:57:07;;;;;;;18.00;13.20;;;;;;;3.66;100.00;93506.22;2115401;28;20020;-79
2021/10/12 03:58:08;;;;;;;20.50;13.27;;;;;;;3.71;100.00;93505.88;2116074;28;20096;-81
2021/10/12 03:59:09;;;;;;;16.20;12.13;;;;;;;3.66;100.00;93506.97;2120631;27;20015;-81
2021/10/12 04:00:11;;;;;;;19.10;12.57;;;;;;;3.60;100.00;93507.63;2115570;28;20035;-80
2021/10/12 04:01:12;;;;;;;19.60;13.20;;;;;;;3.59;100.00;93501.59;2123916;27;20027;-81
2021/10/12 04:02:13;;;;;;;18.90;13.30;;;;;;;3.60;100.00;93503.13;2123851;27;20047;-79
2021/10/12 04:03:15;;;;;;;19.65;14.57;;;;;;;3.64;100.00;93505.78;2123931;27;20371;-79
2021/10/12 04:04:16;;;;;;;17.67;13.13;;;;;;;3.68;100.00;93503.97;2123789;27;20042;-81
2021/10/12 04:05:17;;;;;;;20.75;14.15;;;;;;;3.64;100.00;93509.19;2115426;28;20434;-80
2021/10/12 04:06:18;;;;;;;19.73;14.45;;;;;;;3.64;100.00;93509.19;2106920;28;20024;-83
2021/10/12 04:07:19;;;;;;;20.95;13.73;;;;;;;3.69;100.00;93505.50;2123621;27;20019;-81
2021/10/12 04:08:20;;;;;;;17.63;12.38;;;;;;;3.74;100.00;93513.09;2123797;27;20026;-81
2021/10/12 04:09:21;;;;;;;19.23;13.23;;;;;;;3.90;100.00;93510.97;2123826;27;20034;-79
2021/10/12 04:10:22;;;;;;;16.98;12.45;;;;;;;3.92;100.00;93511.38;2115253;28;20020;-80
2021/10/12 04:11:23;;;;;;;21.50;13.48;;;;;;;4.09;100.00;93511.94;2115439;27;20024;-82
2021/10/12 04:12:24;;;;;;;20.85;13.15;;;;;;;3.96;100.00;93522.75;2116974;27;20034;-81
2021/10/12 04:13:25;;;;;;;17.15;12.93;;;;;;;3.90;100.00;93518.91;2116022;28;20031;-81
2021/10/12 04:14:26;;;;;;;20.60;13.10;;;;;;;3.87;100.00;93522.31;2115256;28;20024;-81
2021/10/12 04:15:27;;;;;;;20.40;12.98;;;;;;;3.76;100.00;93527.47;2115422;28;20495;-79
2021/10/12 04:16:28;;;;;;;17.95;12.80;;;;;;;3.74;100.00;93521.78;2115953;28;20073;-78
2021/10/12 04:17:29;;;;;;;16.98;11.90;;;;;;;3.72;100.00;93528.53;2115853;28;20019;-81
2021/10/12 04:18:30;;;;;;;18.40;12.70;;;;;;;3.72;100.00;93528.53;2115830;28;20023;-79
2021/10/12 04:19:31;;;;;;;17.52;12.60;;;;;;;3.73;100.00;93528.19;2115314;28;20027;-81
2021/10/12 04:20:34;;;;;;;19.98;11.82;;;;;;;3.64;100.00;93526.94;2098432;28;20028;-81
2021/10/12 04:21:35;;;;;;;15.15;11.70;;;;;;;3.63;100.00;93528.06;2098834;28;20021;-81
2021/10/12 04:22:36;;;;;;;17.48;11.77;;;;;;;3.59;100.00;93529.91;2115159;28;20031;-80
2021/10/12 04:23:38;;;;;;;17.20;12.20;;;;;;;3.49;100.00;93529.44;2115829;28;20019;-81
2021/10/12 04:24:40;;;;;;;17.90;12.43;;;;;;;3.49;100.00;93523.41;2115159;28;20389;-81
2021/10/12 04:25:42;;;;;;;16.77;12.13;;;;;;;3.62;100.00;93523.91;2115147;28;20050;-80
2021/10/12 04:26:43;;;;;;;17.17;12.55;;;;;;;3.58;100.00;93517.81;2106646;28;20354;-82
2021/10/12 04:27:44;;;;;;;16.75;12.85;;;;;;;3.39;100.00;93516.88;2098272;28;20552;-80
2021/10/12 04:28:45;;;;;;;15.27;12.32;;;;;;;3.49;100.00;93510.94;2115149;28;20034;-79
2021/10/12 04:29:46;;;;;;;17.45;12.43;;;;;;;3.56;100.00;93522.69;2115747;28;20030;-80
2021/10/12 04:30:47;;;;;;;17.70;13.35;;;;;;;3.58;100.00;93513.28;2114038;28;20572;-81
2021/10/12 04:31:48;;;;;;;17.42;12.65;;;;;;;3.53;100.00;93522.31;2115158;28;20042;-80
2021/10/12 04:32:49;;;;;;;20.10;13.80;;;;;;;3.48;100.00;93508.66;2115232;28;20073;-80
2021/10/12 04:33:50;;;;;;;17.38;12.95;;;;;;;3.53;100.00;93506.44;2115203;28;20026;-80
2021/10/12 04:34:51;;;;;;;16.42;12.43;;;;;;;3.54;100.00;93509.84;2115039;28;20023;-80
2021/10/12 04:35:52;;;;;;;16.08;11.85;;;;;;;3.46;100.00;93516.94;2115077;28;20024;-80
2021/10/12 04:36:54;;;;;;;19.88;12.77;;;;;;;3.59;100.00;93524.63;2115354;28;20496;-81
2021/10/12 04:37:55;;;;;;;19.48;12.63;;;;;;;3.51;100.00;93516.63;2114992;28;20027;-79
2021/10/12 04:38:56;;;;;;;18.38;12.48;;;;;;;3.52;100.00;93523.44;2115135;27;20103;-79
2021/10/12 04:39:57;;;;;;;17.25;12.18;;;;;;;3.44;100.00;93516.53;2123595;27;20019;-81
2021/10/12 04:40:58;;;;;;;18.17;12.75;;;;;;;3.39;100.00;93522.16;2115293;28;20523;-81
2021/10/12 04:42:01;;;;;;;19.15;12.10;;;;;;;3.40;100.00;93515.75;2106587;28;20111;-79
2021/10/12 04:43:06;;;;;;;17.77;12.68;;;;;;;3.50;100.00;93515.09;2115305;28;20734;-80
2021/10/12 04:44:09;;;;;;;18.23;12.82;;;;;;;3.53;100.00;93513.63;2115064;28;20077;-81